| time (UTC) | temp C | wind direction | speed KPH | gust KPH | rain 1hr cm | rain 24hr cm | rain mn cm | humidity % | barometer mb |
| 20260906163056 | 23 | 83 | 4.8 | 14.5 | 0.00 | 0.00 | 0.00 | 62 | 1020.4 |
| 20260906161545 | 23 | 104 | 3.2 | 11.3 | 0.00 | 0.00 | 0.00 | 67 | 1020.3 |
| 20260906160044 | 23 | 189 | 4.8 | 12.9 | 0.00 | 0.00 | 0.00 | 66 | 1020.5 |
| 20260906154538 | 22 | 76 | 3.2 | 12.9 | 0.00 | 0.00 | 0.00 | 68 | 1020.4 |
| 20260906153044 | 22 | 113 | 4.8 | 11.3 | 0.00 | 0.00 | 0.00 | 70 | 1020.5 |
| 20260906151545 | 22 | 175 | 4.8 | 11.3 | 0.00 | 0.00 | 0.00 | 71 | 1020.5 |
| 20260906150035 | 22 | 87 | 3.2 | 11.3 | 0.00 | 0.00 | 0.00 | 71 | 1020.4 |
| 20260906144531 | 21 | 92 | 4.8 | 12.9 | 0.00 | 0.00 | 0.00 | 73 | 1020.2 |
| 20260906143036 | 21 | 99 | 4.8 | 9.7 | 0.00 | 0.00 | 0.00 | 74 | 1020.4 |
| 20260906141523 | 21 | 101 | 3.2 | 6.4 | 0.00 | 0.00 | 0.00 | 78 | 1020.3 |
| 20260906140025 | 20 | 90 | 3.2 | 9.7 | 0.00 | 0.00 | 0.00 | 81 | 1020.4 |
| 20260906134519 | 18 | 88 | 3.2 | 6.4 | 0.00 | 0.00 | 0.00 | 83 | 1020.4 |
| 20260906133024 | 18 | 59 | 1.6 | 4.8 | 0.00 | 0.00 | 0.00 | 84 | 1020.3 |
| 20260906131517 | 17 | 59 | 1.6 | 6.4 | 0.00 | 0.00 | 0.00 | 84 | 1020.3 |
| 20260906130007 | 16 | 68 | 1.6 | 6.4 | 0.00 | 0.00 | 0.00 | 84 | 1020.0 |
| 20260906124504 | 16 | 42 | 0.0 | 3.2 | 0.00 | 0.00 | 0.00 | 84 | 1020.0 |
| 20260906123102 | 16 | 42 | 1.6 | 4.8 | 0.00 | 0.00 | 0.00 | 84 | 1019.9 |
| 20260906121556 | 15 | 34 | 3.2 | 6.4 | 0.00 | 0.00 | 0.00 | 84 | 1019.7 |
| 20260906120058 | 15 | 28 | 1.6 | 4.8 | 0.00 | 0.00 | 0.00 | 84 | 1019.7 |
| 20260906114553 | 14 | 28 | 0.0 | 1.6 | 0.00 | 0.00 | 0.00 | 84 | 1019.5 |
| 20260906113051 | 14 | 28 | 0.0 | 1.6 | 0.00 | 0.00 | 0.00 | 83 | 1019.1 |
| 20260906111551 | 14 | 28 | 1.6 | 3.2 | 0.00 | 0.00 | 0.00 | 83 | 1019.0 |
| 20260906110054 | 15 | 32 | 0.0 | 3.2 | 0.00 | 0.00 | 0.00 | 83 | 1018.7 |
| 20260906104551 | 15 | 32 | 1.6 | 4.8 | 0.00 | 0.00 | 0.00 | 84 | 1018.8 |
| 20260906103102 | 15 | 28 | 0.0 | 3.2 | 0.00 | 0.00 | 0.00 | 83 | 1018.8 |
| 20260906101548 | 15 | 28 | 1.6 | 4.8 | 0.00 | 0.00 | 0.00 | 83 | 1018.8 |
| 20260906100047 | 15 | 28 | 0.0 | 4.8 | 0.00 | 0.00 | 0.00 | 83 | 1019.0 |
| 20260906094547 | 15 | 28 | 0.0 | 1.6 | 0.00 | 0.00 | 0.00 | 83 | 1018.9 |
| 20260906093050 | 15 | 28 | 0.0 | 1.6 | 0.00 | 0.00 | 0.00 | 83 | 1018.6 |
| 20260906091545 | 15 | 27 | 3.2 | 6.4 | 0.00 | 0.00 | 0.00 | 83 | 1018.5 |
| 20260906090058 | 15 | 43 | 1.6 | 3.2 | 0.00 | 0.00 | 0.00 | 83 | 1018.4 |
| 20260906084544 | 15 | 43 | 0.0 | 4.8 | 0.00 | 0.00 | 0.00 | 83 | 1018.5 |
| 20260906083043 | 15 | 43 | 0.0 | 3.2 | 0.00 | 0.00 | 0.00 | 84 | 1018.5 |
| 20260906081542 | 15 | 43 | 1.6 | 6.4 | 0.00 | 0.00 | 0.00 | 84 | 1018.3 |
| 20260906080041 | 15 | 63 | 1.6 | 4.8 | 0.00 | 0.00 | 0.00 | 84 | 1018.3 |
| 20260906074541 | 15 | 71 | 0.0 | 3.2 | 0.00 | 0.00 | 0.00 | 84 | 1018.4 |
| 20260906073056 | 15 | 71 | 0.0 | 0.0 | 0.00 | 0.00 | 0.00 | 84 | 1018.6 |
| 20260906071539 | 15 | 71 | 0.0 | 3.2 | 0.00 | 0.00 | 0.00 | 84 | 1018.5 |
| 20260906070041 | 14 | 71 | 0.0 | 3.2 | 0.00 | 0.00 | 0.00 | 84 | 1018.4 |
| 20260906064537 | 14 | 71 | 0.0 | 0.0 | 0.00 | 0.00 | 0.00 | 83 | 1018.3 |
| 20260906063045 | 15 | 71 | 0.0 | 0.0 | 0.00 | 0.00 | 0.00 | 83 | 1018.2 |
| 20260906061534 | 15 | 71 | 0.0 | 0.0 | 0.00 | 0.00 | 0.00 | 83 | 1018.1 |
| 20260906060032 | 15 | 71 | 0.0 | 0.0 | 0.00 | 0.00 | 0.00 | 83 | 1018.1 |
| 20260906054535 | 15 | 71 | 1.6 | 3.2 | 0.00 | 0.00 | 0.00 | 83 | 1018.1 |
| 20260906053030 | 15 | 71 | 0.0 | 1.6 | 0.00 | 0.00 | 0.00 | 83 | 1017.8 |
| 20260906051548 | 15 | 71 | 0.0 | 1.6 | 0.00 | 0.00 | 0.00 | 83 | 1017.7 |
| 20260906050025 | 15 | 71 | 0.0 | 0.0 | 0.00 | 0.00 | 0.00 | 83 | 1017.5 |
| 20260906044524 | 15 | 71 | 0.0 | 0.0 | 0.00 | 0.00 | 0.00 | 83 | 1017.5 |
| 20260906043023 | 15 | 71 | 0.0 | 0.0 | 0.00 | 0.00 | 0.00 | 82 | 1017.4 |
| 20260906041521 | 15 | 71 | 0.0 | 0.0 | 0.00 | 0.00 | 0.00 | 82 | 1017.3 |
| 20260906040031 | 16 | 71 | 0.0 | 0.0 | 0.00 | 0.00 | 0.00 | 82 | 1017.3 |
| 20260906034521 | 16 | 71 | 0.0 | 0.0 | 0.00 | 0.00 | 0.00 | 81 | 1017.3 |
| 20260906033017 | 16 | 71 | 0.0 | 1.6 | 0.00 | 0.00 | 0.00 | 81 | 1017.1 |
| 20260906031515 | 16 | 71 | 0.0 | 3.2 | 0.00 | 0.00 | 0.00 | 80 | 1017.0 |
| 20260906030014 | 17 | 71 | 0.0 | 0.0 | 0.00 | 0.00 | 0.00 | 80 | 1017.1 |
| 20260906024510 | 17 | 71 | 0.0 | 0.0 | 0.00 | 0.05 | 0.00 | 79 | 1017.0 |
| 20260906023008 | 17 | 71 | 0.0 | 0.0 | 0.00 | 0.05 | 0.00 | 78 | 1017.0 |
| 20260906021506 | 17 | 71 | 0.0 | 0.0 | 0.00 | 0.05 | 0.00 | 77 | 1017.0 |
| 20260906020004 | 18 | 71 | 0.0 | 3.2 | 0.00 | 0.05 | 0.00 | 77 | 1016.8 |
| 20260906014501 | 18 | 71 | 0.0 | 1.6 | 0.00 | 0.05 | 0.00 | 76 | 1016.8 |
| 20260906013106 | 18 | 71 | 0.0 | 4.8 | 0.00 | 0.05 | 0.00 | 76 | 1016.7 |
| 20260906011556 | 19 | 32 | 1.6 | 3.2 | 0.00 | 0.05 | 0.00 | 75 | 1016.6 |
| 20260906010055 | 20 | 28 | 0.0 | 3.2 | 0.00 | 0.05 | 0.00 | 74 | 1016.5 |
| 20260906004555 | 20 | 28 | 0.0 | 0.0 | 0.00 | 0.05 | 0.00 | 72 | 1016.5 |
| 20260906003053 | 21 | 28 | 0.0 | 1.6 | 0.00 | 0.05 | 0.00 | 71 | 1016.3 |
| 20260906001553 | 21 | 28 | 0.0 | 1.6 | 0.00 | 0.05 | 0.00 | 69 | 1016.3 |
| 20260906000104 | 22 | 29 | 0.0 | 4.8 | 0.00 | 0.05 | 0.00 | 67 | 1016.3 |
| 20260905234606 | 22 | 31 | 0.0 | 4.8 | 0.00 | 0.05 | 0.00 | 67 | 1016.2 |
| 20260905233050 | 23 | 41 | 0.0 | 6.4 | 0.00 | 0.05 | 0.00 | 67 | 1016.4 |
| 20260905231550 | 23 | 41 | 0.0 | 6.4 | 0.00 | 0.05 | 0.00 | 66 | 1016.5 |
| 20260905230051 | 23 | 53 | 6.4 | 14.5 | 0.00 | 0.05 | 0.00 | 65 | 1016.5 |
| 20260905224551 | 23 | 81 | 8.0 | 17.7 | 0.00 | 0.05 | 0.00 | 65 | 1016.1 |
| 20260905223050 | 23 | 9 | 8.0 | 19.3 | 0.00 | 0.05 | 0.00 | 66 | 1016.0 |
| 20260905221543 | 23 | 62 | 8.0 | 14.5 | 0.00 | 0.05 | 0.00 | 67 | 1016.1 |
| 20260905220040 | 22 | 25 | 1.6 | 9.7 | 0.00 | 0.05 | 0.00 | 71 | 1016.0 |
| 20260905214540 | 22 | 55 | 4.8 | 9.7 | 0.00 | 0.05 | 0.00 | 72 | 1016.0 |
| 20260905213041 | 22 | 75 | 3.2 | 11.3 | 0.00 | 0.05 | 0.00 | 73 | 1016.2 |
| 20260905211540 | 22 | 77 | 0.0 | 6.4 | 0.00 | 0.05 | 0.00 | 74 | 1016.1 |
| 20260905210052 | 22 | 44 | 3.2 | 6.4 | 0.00 | 0.05 | 0.00 | 74 | 1016.2 |
| 20260905204537 | 22 | 20 | 3.2 | 6.4 | 0.00 | 0.05 | 0.00 | 73 | 1016.1 |
| 20260905203051 | 23 | 337 | 3.2 | 6.4 | 0.00 | 0.05 | 0.00 | 73 | 1015.9 |
| 20260905201537 | 23 | 355 | 3.2 | 9.7 | 0.00 | 0.05 | 0.00 | 73 | 1016.1 |
| 20260905200034 | 22 | 27 | 9.7 | 17.7 | 0.00 | 0.05 | 0.00 | 74 | 1016.1 |
| 20260905194533 | 22 | 26 | 4.8 | 14.5 | 0.00 | 0.05 | 0.00 | 75 | 1016.1 |
| 20260905193035 | 22 | 38 | 4.8 | 16.1 | 0.00 | 0.05 | 0.00 | 75 | 1016.1 |
| 20260905191537 | 22 | 31 | 8.0 | 14.5 | 0.00 | 0.05 | 0.00 | 74 | 1016.1 |
| 20260905190033 | 22 | 79 | 4.8 | 12.9 | 0.00 | 0.05 | 0.00 | 75 | 1016.1 |
| 20260905184530 | 22 | 26 | 6.4 | 14.5 | 0.00 | 0.05 | 0.00 | 75 | 1016.2 |
| 20260905183028 | 22 | 14 | 6.4 | 14.5 | 0.00 | 0.05 | 0.00 | 76 | 1016.2 |
| 20260905181528 | 22 | 5 | 6.4 | 14.5 | 0.00 | 0.05 | 0.00 | 76 | 1016.3 |
| 20260905180025 | 22 | 42 | 6.4 | 12.9 | 0.00 | 0.05 | 0.00 | 77 | 1016.2 |
| 20260905174525 | 22 | 27 | 4.8 | 12.9 | 0.00 | 0.05 | 0.00 | 77 | 1016.1 |
| 20260905173024 | 22 | 33 | 4.8 | 14.5 | 0.00 | 0.05 | 0.00 | 77 | 1016.2 |
| 20260905171529 | 22 | 360 | 3.2 | 14.5 | 0.00 | 0.05 | 0.00 | 78 | 1016.2 |
| 20260905170025 | 22 | 24 | 4.8 | 12.9 | 0.00 | 0.05 | 0.00 | 77 | 1016.3 |
| 20260905164519 | 21 | 59 | 3.2 | 12.9 | 0.00 | 0.05 | 0.00 | 78 | 1016.5 |